Anton, Texas
Current Conditions -  °F | °C
As of 6:53 AM on Thursday 30 Oct 2014 (Local Time) from KLBB Reporting Station
Clear Clear  
Wind Chill: 47°   Ceiling: Unl
Heat Index: 49°   Visibility: 10mi
Dew Point: 45°   Wind: 6mph
Humidity: 86%   Direction: 270°W
Pressure: 30.11"   Gusts: NA
Location:  33.81°N, 102.16°W
Report Text: KLBB 301153Z 27005KT 10SM CLR 09/07 A3011 RMK AO2 SLP170 T00940072 10133 20094 55004
Loading
Personal Weather Stations






























Interactive Weather Map
Tropical Storm Tracking
New forecast layout! Learn more

10-Day Weather Forecast

Advertisements
Track Severe Weather on mobile